Latest Weather Observations for Charlton

IDV60801

Issued at 9:02 pm EDT Friday 27 March 2015 (issued every 30 minutes, with the page automatically refreshed every 10 minutes)

About weather observations | Map of weather stations | Latest weather observations for VIC | Other Formats
Station Details ID: 080128 Name: CHARLTON Lat: -36.28 Lon: 143.33 Height: 131.7 m
Data from the previous 72 hours. | See also: Recent months at Charlton
Date/Time
EDT
Temp
°C
App
Temp
°C
Dew
Point
Rel
Hum
%
Delta-T
°C
Wind Press
QNH
hPa
Press
MSL
hPa
Rain
since 9 am
mm
Dir
 
Spd
km/h
Gust
km/h
Spd
kts
Gust
kts
27/09:00pm 16.2 13.6 6.3 52 4.8 SSW 9 15 5 8 1025.2 1024.9 0.0
27/08:30pm 16.3 12.9 5.9 50 5.0 S 13 20 7 11 1024.8 1024.5 0.0
27/08:00pm 16.3 12.9 5.9 50 5.0 SSW 13 20 7 11 1024.6 1024.3 0.0
27/07:30pm 15.8 12.2 5.1 49 5.1 S 13 20 7 11 1024.3 1023.9 0.0
27/07:00pm 16.7 12.4 5.3 47 5.5 SSW 17 24 9 13 1024.1 1023.7 0.0
27/06:30pm 17.7 13.3 5.0 43 6.1 SSW 17 30 9 16 1023.8 1023.4 0.0
27/06:00pm 18.6 14.4 5.5 42 6.4 SSW 17 26 9 14 1023.6 1023.2 0.0
27/05:30pm 19.0 15.0 5.1 40 6.8 SW 15 22 8 12 1023.5 1023.1 0.0
27/05:00pm 19.9 15.9 6.6 42 6.7 WSW 17 26 9 14 1023.4 1023.0 0.0
27/04:30pm 19.1 15.9 6.9 45 6.2 SW 13 26 7 14 1023.6 1023.2 0.0
27/04:00pm 19.0 15.0 6.5 44 6.2 WSW 17 26 9 14 1023.6 1023.2 0.0
27/03:30pm 19.1 15.5 6.6 44 6.3 SW 15 24 8 13 1023.9 1023.5 0.0
27/03:00pm 18.5 15.3 6.7 46 5.9 SW 13 26 7 14 1024.2 1023.8 0.0
27/02:30pm 19.3 16.2 7.4 46 6.1 WSW 13 22 7 12 1024.4 1024.0 0.0
27/02:00pm 18.1 14.9 6.9 48 5.6 SW 13 20 7 11 1024.8 1024.5 0.0
27/01:30pm 18.7 15.2 7.2 47 5.8 WSW 15 30 8 16 1025.1 1024.8 0.0
27/01:00pm 17.3 13.8 7.1 51 5.1 WSW 15 24 8 13 1025.5 1025.2 0.0
27/12:30pm 17.3 14.2 7.4 52 5.0 SW 13 24 7 13 1025.6 1025.3 0.0
27/12:00pm 16.6 13.8 8.6 59 4.1 WSW 13 26 7 14 1025.8 1025.5 0.0
27/11:30am 15.5 12.7 8.5 63 3.6 SW 13 22 7 12 1026.1 1025.8 0.0
27/11:00am 15.3 12.4 8.3 63 3.5 SW 13 20 7 11 1026.2 1025.9 0.0
27/10:30am 15.3 12.7 9.2 67 3.1 WSW 13 24 7 13 1026.2 1025.9 0.0
27/10:00am 13.2 10.1 8.9 75 2.2 SW 15 24 8 13 1026.1 1025.8 0.0
27/09:30am 13.3 10.7 9.2 76 2.1 WSW 13 24 7 13 1025.8 1025.5 0.0
27/09:00am 11.9 8.5 9.1 83 1.4 WSW 17 26 9 14 1025.5 1025.2 0.0
27/08:30am 10.6 8.2 8.7 88 0.9 W 11 17 6 9 1025.3 1025.0 0.0
27/08:00am 9.9 7.1 8.7 92 0.6 W 13 24 7 13 1024.9 1024.6 0.0
27/07:30am 9.4 7.3 8.3 93 0.5 WSW 9 15 5 8 1024.5 1024.1 0.0
27/07:00am 9.6 6.8 8.5 93 0.5 WSW 13 24 7 13 1024.1 1023.7 0.0
27/06:30am 9.5 6.3 8.4 93 0.5 W 15 20 8 11 1024.0 1023.6 0.0
27/06:00am 9.6 6.8 8.5 93 0.5 W 13 19 7 10 1023.7 1023.3 0.0
27/05:30am 9.3 7.2 8.1 92 0.6 W 9 13 5 7 1023.7 1023.3 0.0
27/05:00am 9.8 7.7 8.4 91 0.7 W 9 15 5 8 1023.4 1023.0 0.0
27/04:30am 9.8 7.3 8.2 90 0.8 W 11 17 6 9 1023.4 1023.0 0.0
27/04:00am 10.1 6.5 8.4 89 0.8 W 17 26 9 14 1023.2 1022.8 0.0
27/03:30am 10.3 7.4 8.2 87 1.0 W 13 24 7 13 1023.3 1022.9 0.0
27/03:00am 10.9 7.7 8.5 85 1.2 W 15 26 8 14 1023.4 1023.0 0.0
27/02:30am 11.0 7.0 8.2 83 1.4 W 19 28 10 15 1023.5 1023.1 0.0
27/02:00am 11.2 7.2 8.2 82 1.5 W 19 28 10 15 1023.5 1023.1 0.0
27/01:30am 11.2 8.2 7.9 80 1.6 W 13 20 7 11 1023.4 1023.0 0.0
27/01:00am 11.3 8.3 7.6 78 1.8 W 13 24 7 13 1023.5 1023.1 0.0
27/12:30am 11.7 8.0 7.8 77 1.9 W 17 28 9 15 1023.4 1023.0 0.0
27/12:00am 11.9 8.0 7.0 72 2.4 W 17 33 9 18 1023.5 1023.1 0.0
 
Date/Time
EDT
Temp
°C
App
Temp
°C
Dew
Point
Rel
Hum
%
Delta-T
°C
Wind Press
QNH
hPa
Press
MSL
hPa
Rain
since 9 am
mm
Dir
 
Spd
km/h
Gust
km/h
Spd
kts
Gust
kts
26/11:30pm 12.5 7.3 7.4 71 2.5 W 24 39 13 21 1023.3 1022.9 0.0
26/11:00pm 12.6 8.3 6.9 68 2.7 W 19 35 10 19 1023.4 1023.0 0.0
26/10:30pm 12.5 7.4 5.9 64 3.1 W 22 33 12 18 1023.1 1022.7 0.0
26/10:00pm 13.4 8.3 5.8 60 3.6 W 22 35 12 19 1023.5 1023.1 0.0
26/09:30pm 13.6 8.8 5.7 59 3.8 W 20 33 11 18 1023.3 1022.9 0.0
26/09:00pm 14.0 9.7 5.4 56 4.1 W 17 32 9 17 1023.1 1022.7 0.0
26/08:30pm 14.0 9.4 5.4 56 4.1 W 19 30 10 16 1022.6 1022.2 0.0
26/08:00pm 14.5 9.2 5.0 53 4.5 W 22 37 12 20 1022.2 1021.8 0.0
26/07:30pm 14.9 9.2 4.9 51 4.7 W 24 39 13 21 1021.8 1021.4 0.0
26/07:03pm 15.6 9.0 4.3 47 5.3 W 28 46 15 25 1021.4 1021.0 0.0
26/07:00pm 15.8 9.6 4.2 46 5.4 W 26 48 14 26 1021.3 1020.9 0.0
26/06:41pm 15.7 9.0 3.8 45 5.5 WSW 28 48 15 26 1021.1 1020.7 0.0
26/06:30pm 16.3 10.0 4.0 44 5.8 WSW 26 44 14 24 1021.0 1020.6 0.0
26/06:03pm 17.0 10.4 4.0 42 6.1 W 28 46 15 25 1020.6 1020.2 0.0
26/06:00pm 16.5 10.6 3.9 43 5.9 W 24 46 13 25 1020.6 1020.2 0.0
26/05:30pm 16.9 9.0 2.1 37 6.7 W 33 57 18 31 1020.2 1019.8 0.0
26/05:03pm 17.5 10.3 3.0 38 6.7 W 30 48 16 26 1020.2 1019.8 0.0
26/05:00pm 17.7 10.5 3.2 38 6.7 W 30 46 16 25 1020.2 1019.8 0.0
26/04:30pm 17.4 9.9 1.4 34 7.2 W 30 48 16 26 1020.1 1019.7 0.0
26/04:11pm 17.5 10.5 1.9 35 7.1 W 28 46 15 25 1020.1 1019.7 0.0
26/04:00pm 17.2 11.4 2.4 37 6.7 W 22 39 12 21 1020.2 1019.8 0.0
26/03:30pm 17.6 10.5 1.6 34 7.2 W 28 44 15 24 1020.2 1019.8 0.0
26/03:00pm 17.3 10.5 0.5 32 7.3 W 26 43 14 23 1020.3 1019.9 0.0
26/02:31pm 18.5 11.0 1.1 31 7.8 W 30 48 16 26 1020.4 1020.0 0.0
26/02:30pm 17.9 9.9 0.6 31 7.6 W 32 48 17 26 1020.5 1020.1 0.0
26/02:22pm 18.1 10.9 0.7 31 7.7 W 28 48 15 26 1020.5 1020.1 0.0
26/02:00pm 17.1 10.3 1.1 34 7.1 W 26 44 14 24 1020.7 1020.3 0.0
26/01:33pm 17.5 10.4 1.1 33 7.3 W 28 46 15 25 1020.7 1020.3 0.0
26/01:30pm 17.9 10.9 1.8 34 7.3 W 28 43 15 23 1020.8 1020.4 0.0
26/01:00pm 15.3 9.0 1.8 40 6.0 W 24 43 13 23 1021.2 1020.8 0.0
26/12:30pm 17.2 11.3 3.8 41 6.3 W 24 37 13 20 1021.5 1021.1 0.0
26/12:00pm 15.1 8.9 2.3 42 5.7 W 24 43 13 23 1021.7 1021.3 0.0
26/11:30am 14.7 9.5 3.5 47 5.1 W 20 33 11 18 1021.9 1021.5 0.0
26/11:00am 13.2 8.1 4.1 54 4.1 W 20 33 11 18 1021.8 1021.4 0.0
26/10:30am 12.6 7.8 4.8 59 3.6 W 19 30 10 16 1021.5 1021.1 0.0
26/10:00am 11.8 7.5 5.4 65 3.0 W 17 26 9 14 1021.4 1021.0 0.0
26/09:30am 10.2 5.6 5.4 72 2.2 WNW 19 28 10 15 1021.2 1020.8 0.0
26/09:00am 9.2 5.0 5.8 79 1.6 WNW 17 28 9 15 1020.8 1020.4 0.0
26/08:30am 8.3 4.1 5.8 84 1.1 WNW 17 26 9 14 1020.5 1020.1 0.0
26/08:00am 7.0 3.5 5.5 90 0.7 NW 13 20 7 11 1019.9 1019.5 0.0
26/07:30am 7.1 3.7 5.9 92 0.5 WNW 13 17 7 9 1019.5 1019.1 0.0
26/07:00am 7.4 4.0 6.0 91 0.6 WNW 13 20 7 11 1019.2 1018.8 0.0
26/06:30am 7.5 4.6 6.3 92 0.6 WNW 11 17 6 9 1018.9 1018.5 0.0
26/06:00am 7.8 4.5 6.6 92 0.6 WNW 13 19 7 10 1018.6 1018.2 0.0
26/05:30am 8.2 5.0 7.0 92 0.6 WNW 13 20 7 11 1018.5 1018.1 0.0
26/05:00am 8.5 5.0 7.4 93 0.5 WNW 15 22 8 12 1018.1 1017.8 0.0
26/04:30am 8.8 5.8 7.9 94 0.4 WNW 13 22 7 12 1017.9 1017.5 0.0
26/04:00am 9.1 5.7 7.7 91 0.7 WNW 15 20 8 11 1017.7 1017.3 0.0
26/03:30am 9.3 5.8 7.4 88 0.9 WNW 15 26 8 14 1017.6 1017.2 0.0
26/03:00am 10.0 6.9 7.4 84 1.2 W 13 22 7 12 1017.5 1017.1 0.0
26/02:30am 10.1 7.1 7.7 85 1.2 W 13 20 7 11 1017.5 1017.1 0.0
26/02:00am 10.4 7.8 7.6 83 1.3 W 11 19 6 10 1017.5 1017.1 0.0
26/01:30am 10.8 8.4 6.9 77 1.9 WSW 9 17 5 9 1017.5 1017.1 0.0
26/01:00am 11.0 6.8 7.3 78 1.8 WSW 19 33 10 18 1017.5 1017.1 0.0
26/12:30am 11.7 7.2 7.0 73 2.3 WSW 20 33 11 18 1017.3 1016.9 0.0
26/12:00am 12.0 6.5 7.5 74 2.2 WSW 26 43 14 23 1017.3 1016.9 0.0
 
Date/Time
EDT
Temp
°C
App
Temp
°C
Dew
Point
Rel
Hum
%
Delta-T
°C
Wind Press
QNH
hPa
Press
MSL
hPa
Rain
since 9 am
mm
Dir
 
Spd
km/h
Gust
km/h
Spd
kts
Gust
kts
25/11:30pm 13.4 7.1 7.2 66 3.0 WSW 30 54 16 29 1016.7 1016.3 0.0
25/11:22pm 15.7 11.0 5.3 50 5.0 NW 19 54 10 29 1016.2 1015.8 0.0
25/11:00pm 16.8 12.6 1.7 36 6.8 NNW 13 20 7 11 1015.6 1015.2 0.0
25/10:30pm 16.2 12.4 1.5 37 6.5 NNW 11 15 6 8 1015.8 1015.4 0.0
25/10:00pm 15.2 11.7 1.4 39 6.1 NNW 9 13 5 7 1015.7 1015.3 0.0
25/09:30pm 15.8 12.7 1.2 37 6.4 NNW 7 11 4 6 1015.8 1015.4 0.0
25/09:00pm 16.9 13.9 1.8 36 6.8 NW 7 15 4 8 1015.6 1015.2 0.0
25/08:30pm 17.7 14.3 1.7 34 7.2 WNW 9 13 5 7 1015.5 1015.1 0.0
25/08:00pm 18.0 13.8 1.9 34 7.3 WNW 13 17 7 9 1015.5 1015.1 0.0
25/07:30pm 18.6 13.3 1.6 32 7.7 WNW 19 35 10 19 1015.1 1014.7 0.0
25/07:00pm 18.6 14.1 2.0 33 7.6 WNW 15 22 8 12 1015.0 1014.6 0.0
25/06:30pm 18.9 15.2 2.3 33 7.7 WNW 11 20 6 11 1014.9 1014.5 0.0
25/06:00pm 19.3 14.4 2.2 32 7.9 NW 17 24 9 13 1015.0 1014.6 0.0
25/05:30pm 19.2 14.3 1.7 31 8.0 WNW 17 30 9 16 1015.0 1014.6 0.0
25/05:00pm 19.5 14.2 1.9 31 8.1 W 19 28 10 15 1015.2 1014.8 0.0
25/04:30pm 19.0 14.4 1.5 31 8.0 W 15 22 8 12 1015.3 1014.9 0.0
25/04:00pm 18.8 13.8 1.3 31 7.9 W 17 33 9 18 1015.7 1015.3 0.0
25/03:30pm 18.9 14.0 1.9 32 7.8 WSW 17 26 9 14 1016.0 1015.6 0.0
25/03:00pm 18.3 14.2 2.2 34 7.4 W 13 28 7 15 1016.1 1015.7 0.0
25/02:30pm 17.9 13.3 1.8 34 7.3 WNW 15 24 8 13 1016.3 1015.9 0.0
25/02:00pm 17.6 13.1 2.4 36 6.9 W 15 26 8 14 1017.0 1016.6 0.0
25/01:30pm 16.5 12.4 2.5 39 6.4 WNW 13 22 7 12 1017.1 1016.7 0.0
25/01:00pm 16.2 12.7 3.3 42 5.9 WNW 11 17 6 9 1017.9 1017.5 0.0
25/12:30pm 16.8 13.4 3.8 42 6.1 WNW 11 17 6 9 1018.2 1017.9 0.0
25/12:00pm 15.1 11.9 3.3 45 5.4 SW 9 15 5 8 1018.7 1018.3 0.0
25/11:30am 15.5 12.0 3.6 45 5.5 W 11 15 6 8 1018.9 1018.5 0.0
25/11:00am 14.8 11.6 3.3 46 5.2 WSW 9 15 5 8 1019.0 1018.6 0.0
25/10:30am 13.1 10.4 3.7 53 4.3 WSW 7 15 4 8 1019.5 1019.1 0.0
25/10:00am 12.3 9.6 3.5 55 3.9 SE 7 11 4 6 1019.1 1018.7 0.0
25/09:30am 10.1 7.9 3.4 63 2.9 SSE 4 7 2 4 1019.0 1018.6 0.0
25/09:00am 8.9 5.7 2.9 66 2.6 SSW 9 13 5 7 1019.6 1019.2 0.0
25/08:30am 7.5 4.7 3.0 73 1.9 SW 7 11 4 6 1019.4 1019.0 0.0
25/08:00am 6.2 3.3 2.5 77 1.5 WSW 7 11 4 6 1019.5 1019.1 0.0
25/07:30am 5.9 3.2 2.5 79 1.4 WSW 6 7 3 4 1018.7 1018.3 0.0
25/07:00am 6.1 3.7 2.2 76 1.6 SSW 4 6 2 3 1018.6 1018.2 0.0
25/06:30am 6.9 4.0 2.6 74 1.8 SSW 7 11 4 6 1018.8 1018.4 0.0
25/06:00am 7.1 3.8 2.6 73 1.9 SSW 9 13 5 7 1018.6 1018.2 0.0
25/05:30am 7.1 4.2 2.6 73 1.9 SW 7 11 4 6 1018.6 1018.2 0.0
25/05:00am 7.3 4.0 2.4 71 2.0 SSW 9 13 5 7 1018.1 1017.8 0.0
25/04:30am 7.3 4.4 2.4 71 2.0 SW 7 15 4 8 1018.4 1018.0 0.0
25/04:00am 7.6 4.7 2.5 70 2.1 SSW 7 11 4 6 1018.5 1018.1 0.0
25/03:30am 8.1 4.8 2.6 68 2.3 SSW 9 15 5 8 1018.8 1018.4 0.0
25/03:00am 8.2 4.2 2.7 68 2.3 SSW 13 20 7 11 1019.1 1018.7 0.0
25/02:30am 8.3 4.7 2.8 68 2.3 SSW 11 17 6 9 1019.2 1018.8 0.0
25/02:00am 8.5 4.9 2.7 67 2.5 SSW 11 17 6 9 1019.5 1019.1 0.0
25/01:30am 8.6 5.4 2.8 67 2.5 SSW 9 13 5 7 1019.7 1019.3 0.0
25/01:00am 9.0 6.2 3.0 66 2.6 WSW 7 13 4 7 1020.3 1019.9 0.0
25/12:30am 9.4 6.2 3.2 65 2.7 SW 9 13 5 7 1019.9 1019.5 0.0
25/12:00am 9.7 6.5 3.2 64 2.8 SW 9 15 5 8 1020.2 1019.8 0.0
 
Date/Time
EDT
Temp
°C
App
Temp
°C
Dew
Point
Rel
Hum
%
Delta-T
°C
Wind Press
QNH
hPa
Press
MSL
hPa
Rain
since 9 am
mm
Dir
 
Spd
km/h
Gust
km/h
Spd
kts
Gust
kts
24/11:30pm 10.1 7.0 3.6 64 2.9 SW 9 13 5 7 1020.3 1019.9 0.0
24/11:00pm 9.9 7.3 3.4 64 2.8 W 6 7 3 4 1020.6 1020.2 0.0
24/10:30pm 10.0 7.2 3.3 63 2.9 SSW 7 9 4 5 1020.4 1020.0 0.0
24/10:00pm 10.8 8.0 3.1 59 3.4 SSW 7 11 4 6 1020.3 1019.9 0.0
24/09:30pm 11.7 8.5 3.2 56 3.8 S 9 13 5 7 1020.2 1019.8 0.0

Other Formats:

Comma delimited format used in spreadsheet applications
http://www.bom.gov.au/fwo/IDV60801/IDV60801.94839.axf

JavaScript Object Notation format (JSON) in row-major order
http://www.bom.gov.au/fwo/IDV60801/IDV60801.94839.json